sensor_id;sensor_type;location;lat;lon;timestamp;P1;durP1;ratioP1;P2;durP2;ratioP2
76729;SDS011;65653;53.106;18.046;2023-11-22T00:01:12;7.40;;;3.60;;
76729;SDS011;65653;53.106;18.046;2023-11-22T00:03:38;10.50;;;4.30;;
76729;SDS011;65653;53.106;18.046;2023-11-22T00:06:05;9.90;;;3.50;;
76729;SDS011;65653;53.106;18.046;2023-11-22T00:08:32;6.30;;;2.80;;
76729;SDS011;65653;53.106;18.046;2023-11-22T00:10:58;7.80;;;3.60;;
76729;SDS011;65653;53.106;18.046;2023-11-22T00:13:24;9.50;;;4.30;;
76729;SDS011;65653;53.106;18.046;2023-11-22T00:15:50;11.30;;;4.90;;
76729;SDS011;65653;53.106;18.046;2023-11-22T00:18:16;16.20;;;4.90;;
76729;SDS011;65653;53.106;18.046;2023-11-22T00:20:42;9.70;;;3.90;;
76729;SDS011;65653;53.106;18.046;2023-11-22T00:23:08;9.30;;;4.30;;
76729;SDS011;65653;53.106;18.046;2023-11-22T00:25:35;7.20;;;3.30;;
76729;SDS011;65653;53.106;18.046;2023-11-22T00:28:00;2.60;;;1.50;;
76729;SDS011;65653;53.106;18.046;2023-11-22T00:30:26;12.10;;;5.50;;
76729;SDS011;65653;53.106;18.046;2023-11-22T00:32:53;8.20;;;4.00;;
76729;SDS011;65653;53.106;18.046;2023-11-22T00:35:19;10.50;;;4.60;;
76729;SDS011;65653;53.106;18.046;2023-11-22T00:37:45;21.40;;;7.50;;
76729;SDS011;65653;53.106;18.046;2023-11-22T00:40:11;18.60;;;6.80;;
76729;SDS011;65653;53.106;18.046;2023-11-22T00:42:37;19.10;;;6.50;;
76729;SDS011;65653;53.106;18.046;2023-11-22T00:45:05;24.00;;;7.30;;
76729;SDS011;65653;53.106;18.046;2023-11-22T00:47:32;21.60;;;7.40;;
76729;SDS011;65653;53.106;18.046;2023-11-22T00:49:59;10.30;;;3.70;;
76729;SDS011;65653;53.106;18.046;2023-11-22T00:52:25;13.00;;;4.40;;
76729;SDS011;65653;53.106;18.046;2023-11-22T00:54:51;11.60;;;5.30;;
76729;SDS011;65653;53.106;18.046;2023-11-22T00:57:16;14.70;;;5.20;;
76729;SDS011;65653;53.106;18.046;2023-11-22T00:59:42;12.30;;;4.60;;
76729;SDS011;65653;53.106;18.046;2023-11-22T01:02:09;17.20;;;6.90;;
76729;SDS011;65653;53.106;18.046;2023-11-22T01:04:35;18.20;;;6.50;;
76729;SDS011;65653;53.106;18.046;2023-11-22T01:07:02;23.00;;;7.60;;
76729;SDS011;65653;53.106;18.046;2023-11-22T01:09:32;22.00;;;8.60;;
76729;SDS011;65653;53.106;18.046;2023-11-22T01:11:59;29.00;;;9.30;;
76729;SDS011;65653;53.106;18.046;2023-11-22T01:14:25;25.00;;;8.30;;
76729;SDS011;65653;53.106;18.046;2023-11-22T01:16:54;26.60;;;8.90;;
76729;SDS011;65653;53.106;18.046;2023-11-22T01:19:21;35.70;;;10.20;;
76729;SDS011;65653;53.106;18.046;2023-11-22T01:21:47;28.30;;;8.80;;
76729;SDS011;65653;53.106;18.046;2023-11-22T01:24:13;22.90;;;7.90;;
76729;SDS011;65653;53.106;18.046;2023-11-22T01:26:39;31.20;;;8.40;;
76729;SDS011;65653;53.106;18.046;2023-11-22T01:29:05;33.80;;;9.70;;
76729;SDS011;65653;53.106;18.046;2023-11-22T01:31:31;35.40;;;10.00;;
76729;SDS011;65653;53.106;18.046;2023-11-22T01:34:00;23.40;;;8.20;;
76729;SDS011;65653;53.106;18.046;2023-11-22T01:36:27;26.80;;;7.40;;
76729;SDS011;65653;53.106;18.046;2023-11-22T01:38:53;44.60;;;12.30;;
76729;SDS011;65653;53.106;18.046;2023-11-22T01:41:19;29.60;;;9.00;;
76729;SDS011;65653;53.106;18.046;2023-11-22T01:43:45;41.90;;;10.60;;
76729;SDS011;65653;53.106;18.046;2023-11-22T01:46:21;38.00;;;11.60;;
76729;SDS011;65653;53.106;18.046;2023-11-22T01:48:49;37.90;;;10.60;;
76729;SDS011;65653;53.106;18.046;2023-11-22T01:51:19;38.40;;;10.40;;
76729;SDS011;65653;53.106;18.046;2023-11-22T01:53:51;33.80;;;10.00;;
76729;SDS011;65653;53.106;18.046;2023-11-22T01:56:22;42.20;;;12.50;;
76729;SDS011;65653;53.106;18.046;2023-11-22T01:58:50;30.80;;;9.80;;
76729;SDS011;65653;53.106;18.046;2023-11-22T02:01:16;37.40;;;10.40;;
76729;SDS011;65653;53.106;18.046;2023-11-22T02:03:45;40.80;;;11.30;;
76729;SDS011;65653;53.106;18.046;2023-11-22T02:06:14;39.80;;;11.30;;
76729;SDS011;65653;53.106;18.046;2023-11-22T02:08:42;42.90;;;10.80;;
76729;SDS011;65653;53.106;18.046;2023-11-22T02:11:08;30.50;;;10.40;;
76729;SDS011;65653;53.106;18.046;2023-11-22T02:13:34;45.20;;;12.00;;
76729;SDS011;65653;53.106;18.046;2023-11-22T02:16:02;39.40;;;11.10;;
76729;SDS011;65653;53.106;18.046;2023-11-22T02:18:29;43.80;;;11.50;;
76729;SDS011;65653;53.106;18.046;2023-11-22T02:20:56;41.70;;;11.80;;
76729;SDS011;65653;53.106;18.046;2023-11-22T02:23:22;41.80;;;10.90;;
76729;SDS011;65653;53.106;18.046;2023-11-22T02:25:48;21.90;;;6.70;;
76729;SDS011;65653;53.106;18.046;2023-11-22T02:28:14;46.60;;;10.90;;
76729;SDS011;65653;53.106;18.046;2023-11-22T02:30:40;28.20;;;8.50;;
76729;SDS011;65653;53.106;18.046;2023-11-22T02:33:08;41.60;;;12.30;;
76729;SDS011;65653;53.106;18.046;2023-11-22T02:35:34;44.80;;;12.00;;
76729;SDS011;65653;53.106;18.046;2023-11-22T02:38:00;47.00;;;12.90;;
76729;SDS011;65653;53.106;18.046;2023-11-22T02:40:26;34.20;;;11.90;;
76729;SDS011;65653;53.106;18.046;2023-11-22T02:42:54;45.00;;;11.90;;
76729;SDS011;65653;53.106;18.046;2023-11-22T02:45:24;47.40;;;12.40;;
76729;SDS011;65653;53.106;18.046;2023-11-22T02:47:51;48.20;;;12.70;;
76729;SDS011;65653;53.106;18.046;2023-11-22T02:50:18;46.70;;;13.00;;
76729;SDS011;65653;53.106;18.046;2023-11-22T02:52:44;50.50;;;14.00;;
76729;SDS011;65653;53.106;18.046;2023-11-22T02:55:10;41.60;;;12.80;;
76729;SDS011;65653;53.106;18.046;2023-11-22T02:57:36;42.20;;;12.40;;
76729;SDS011;65653;53.106;18.046;2023-11-22T03:00:08;32.30;;;9.70;;
76729;SDS011;65653;53.106;18.046;2023-11-22T03:02:39;52.10;;;14.60;;
76729;SDS011;65653;53.106;18.046;2023-11-22T03:05:06;40.70;;;10.80;;
76729;SDS011;65653;53.106;18.046;2023-11-22T03:07:33;35.80;;;8.60;;
76729;SDS011;65653;53.106;18.046;2023-11-22T03:10:00;60.10;;;14.90;;
76729;SDS011;65653;53.106;18.046;2023-11-22T03:12:26;54.40;;;14.70;;
76729;SDS011;65653;53.106;18.046;2023-11-22T03:14:52;51.10;;;13.40;;
76729;SDS011;65653;53.106;18.046;2023-11-22T03:17:24;49.10;;;14.10;;
76729;SDS011;65653;53.106;18.046;2023-11-22T03:19:50;35.60;;;10.10;;
76729;SDS011;65653;53.106;18.046;2023-11-22T03:22:17;52.30;;;13.40;;
76729;SDS011;65653;53.106;18.046;2023-11-22T03:24:43;50.30;;;11.90;;
76729;SDS011;65653;53.106;18.046;2023-11-22T03:27:08;51.90;;;12.50;;
76729;SDS011;65653;53.106;18.046;2023-11-22T03:29:36;48.20;;;14.00;;
76729;SDS011;65653;53.106;18.046;2023-11-22T03:32:03;52.40;;;14.10;;
76729;SDS011;65653;53.106;18.046;2023-11-22T03:34:29;60.40;;;15.50;;
76729;SDS011;65653;53.106;18.046;2023-11-22T03:36:55;54.70;;;13.10;;
76729;SDS011;65653;53.106;18.046;2023-11-22T03:39:22;59.10;;;15.10;;
76729;SDS011;65653;53.106;18.046;2023-11-22T03:41:48;64.00;;;16.90;;
76729;SDS011;65653;53.106;18.046;2023-11-22T03:44:13;61.70;;;17.40;;
76729;SDS011;65653;53.106;18.046;2023-11-22T03:46:41;70.80;;;19.30;;
76729;SDS011;65653;53.106;18.046;2023-11-22T03:49:07;66.80;;;18.40;;
76729;SDS011;65653;53.106;18.046;2023-11-22T03:51:33;65.50;;;18.00;;
76729;SDS011;65653;53.106;18.046;2023-11-22T03:53:59;65.70;;;17.30;;
76729;SDS011;65653;53.106;18.046;2023-11-22T03:56:25;70.30;;;18.10;;
76729;SDS011;65653;53.106;18.046;2023-11-22T03:58:51;62.40;;;18.00;;
76729;SDS011;65653;53.106;18.046;2023-11-22T04:01:17;66.90;;;18.40;;
76729;SDS011;65653;53.106;18.046;2023-11-22T04:03:44;64.80;;;19.30;;
76729;SDS011;65653;53.106;18.046;2023-11-22T04:06:10;65.80;;;17.80;;
76729;SDS011;65653;53.106;18.046;2023-11-22T04:08:35;67.00;;;19.20;;
76729;SDS011;65653;53.106;18.046;2023-11-22T04:11:03;63.80;;;18.30;;
76729;SDS011;65653;53.106;18.046;2023-11-22T04:13:30;70.90;;;18.70;;
76729;SDS011;65653;53.106;18.046;2023-11-22T04:15:57;69.70;;;18.60;;
76729;SDS011;65653;53.106;18.046;2023-11-22T04:18:23;66.90;;;17.50;;
76729;SDS011;65653;53.106;18.046;2023-11-22T04:20:50;67.30;;;19.40;;
76729;SDS011;65653;53.106;18.046;2023-11-22T04:23:16;68.90;;;19.60;;
76729;SDS011;65653;53.106;18.046;2023-11-22T04:25:42;55.10;;;17.70;;
76729;SDS011;65653;53.106;18.046;2023-11-22T04:28:08;74.70;;;20.10;;
76729;SDS011;65653;53.106;18.046;2023-11-22T04:30:35;69.60;;;19.20;;
76729;SDS011;65653;53.106;18.046;2023-11-22T04:33:01;63.90;;;16.90;;
76729;SDS011;65653;53.106;18.046;2023-11-22T04:35:27;78.20;;;19.60;;
76729;SDS011;65653;53.106;18.046;2023-11-22T04:37:53;81.60;;;20.60;;
76729;SDS011;65653;53.106;18.046;2023-11-22T04:40:24;70.30;;;20.50;;
76729;SDS011;65653;53.106;18.046;2023-11-22T04:42:50;72.90;;;20.80;;
76729;SDS011;65653;53.106;18.046;2023-11-22T04:45:15;58.90;;;16.00;;
76729;SDS011;65653;53.106;18.046;2023-11-22T04:47:42;72.50;;;18.30;;
76729;SDS011;65653;53.106;18.046;2023-11-22T04:50:09;84.10;;;22.80;;
76729;SDS011;65653;53.106;18.046;2023-11-22T04:52:35;91.80;;;21.20;;
76729;SDS011;65653;53.106;18.046;2023-11-22T04:55:01;81.60;;;21.00;;
76729;SDS011;65653;53.106;18.046;2023-11-22T04:57:27;79.60;;;20.70;;
76729;SDS011;65653;53.106;18.046;2023-11-22T04:59:52;75.60;;;20.70;;
76729;SDS011;65653;53.106;18.046;2023-11-22T05:02:19;81.50;;;20.90;;
76729;SDS011;65653;53.106;18.046;2023-11-22T05:04:44;79.90;;;20.70;;
76729;SDS011;65653;53.106;18.046;2023-11-22T05:07:17;83.60;;;22.30;;
76729;SDS011;65653;53.106;18.046;2023-11-22T05:09:44;77.90;;;20.20;;
76729;SDS011;65653;53.106;18.046;2023-11-22T05:12:10;75.00;;;21.60;;
76729;SDS011;65653;53.106;18.046;2023-11-22T05:14:37;68.70;;;19.80;;
76729;SDS011;65653;53.106;18.046;2023-11-22T05:17:04;76.50;;;20.90;;
76729;SDS011;65653;53.106;18.046;2023-11-22T05:19:30;73.30;;;20.50;;
76729;SDS011;65653;53.106;18.046;2023-11-22T05:21:57;78.30;;;21.50;;
76729;SDS011;65653;53.106;18.046;2023-11-22T05:24:23;76.20;;;20.00;;
76729;SDS011;65653;53.106;18.046;2023-11-22T05:26:49;85.30;;;23.30;;
76729;SDS011;65653;53.106;18.046;2023-11-22T05:29:15;75.10;;;21.80;;
76729;SDS011;65653;53.106;18.046;2023-11-22T05:31:40;85.30;;;23.70;;
76729;SDS011;65653;53.106;18.046;2023-11-22T05:34:06;87.60;;;23.40;;
76729;SDS011;65653;53.106;18.046;2023-11-22T05:36:32;86.70;;;24.00;;
76729;SDS011;65653;53.106;18.046;2023-11-22T05:38:58;93.20;;;24.30;;
76729;SDS011;65653;53.106;18.046;2023-11-22T05:41:28;85.40;;;25.80;;
76729;SDS011;65653;53.106;18.046;2023-11-22T05:43:54;89.30;;;25.10;;
76729;SDS011;65653;53.106;18.046;2023-11-22T05:46:21;99.90;;;26.10;;
76729;SDS011;65653;53.106;18.046;2023-11-22T05:48:48;91.70;;;25.60;;
76729;SDS011;65653;53.106;18.046;2023-11-22T05:51:17;90.60;;;27.10;;
76729;SDS011;65653;53.106;18.046;2023-11-22T05:53:43;102.80;;;29.10;;
76729;SDS011;65653;53.106;18.046;2023-11-22T05:56:09;97.30;;;26.50;;
76729;SDS011;65653;53.106;18.046;2023-11-22T05:58:35;65.40;;;18.60;;
76729;SDS011;65653;53.106;18.046;2023-11-22T06:01:10;75.40;;;19.50;;
76729;SDS011;65653;53.106;18.046;2023-11-22T06:03:37;81.20;;;22.90;;
76729;SDS011;65653;53.106;18.046;2023-11-22T06:06:04;84.80;;;20.80;;
76729;SDS011;65653;53.106;18.046;2023-11-22T06:08:31;87.20;;;23.00;;
76729;SDS011;65653;53.106;18.046;2023-11-22T06:10:56;60.00;;;16.70;;
76729;SDS011;65653;53.106;18.046;2023-11-22T06:13:23;82.00;;;22.70;;
76729;SDS011;65653;53.106;18.046;2023-11-22T06:15:49;70.30;;;22.00;;
76729;SDS011;65653;53.106;18.046;2023-11-22T06:18:15;80.40;;;23.40;;
76729;SDS011;65653;53.106;18.046;2023-11-22T06:20:42;55.80;;;14.60;;
76729;SDS011;65653;53.106;18.046;2023-11-22T06:23:09;85.00;;;24.90;;
76729;SDS011;65653;53.106;18.046;2023-11-22T06:25:35;75.00;;;23.20;;
76729;SDS011;65653;53.106;18.046;2023-11-22T06:28:07;89.30;;;22.50;;
76729;SDS011;65653;53.106;18.046;2023-11-22T06:30:33;96.30;;;27.40;;
76729;SDS011;65653;53.106;18.046;2023-11-22T06:33:00;86.00;;;25.90;;
76729;SDS011;65653;53.106;18.046;2023-11-22T06:35:26;80.10;;;26.10;;
76729;SDS011;65653;53.106;18.046;2023-11-22T06:37:53;88.30;;;25.20;;
76729;SDS011;65653;53.106;18.046;2023-11-22T06:40:19;91.20;;;27.10;;
76729;SDS011;65653;53.106;18.046;2023-11-22T06:42:46;49.90;;;14.80;;
76729;SDS011;65653;53.106;18.046;2023-11-22T06:45:12;72.20;;;20.60;;
76729;SDS011;65653;53.106;18.046;2023-11-22T06:47:47;86.00;;;24.60;;
76729;SDS011;65653;53.106;18.046;2023-11-22T06:50:14;78.10;;;23.00;;
76729;SDS011;65653;53.106;18.046;2023-11-22T06:52:41;83.80;;;24.00;;
76729;SDS011;65653;53.106;18.046;2023-11-22T06:55:08;73.40;;;22.10;;
76729;SDS011;65653;53.106;18.046;2023-11-22T06:57:35;57.50;;;15.20;;
76729;SDS011;65653;53.106;18.046;2023-11-22T07:00:01;83.40;;;22.50;;
76729;SDS011;65653;53.106;18.046;2023-11-22T07:02:35;72.60;;;22.20;;
76729;SDS011;65653;53.106;18.046;2023-11-22T07:05:02;90.70;;;25.40;;
76729;SDS011;65653;53.106;18.046;2023-11-22T07:07:29;77.00;;;25.10;;
76729;SDS011;65653;53.106;18.046;2023-11-22T07:09:55;83.20;;;24.50;;
76729;SDS011;65653;53.106;18.046;2023-11-22T07:12:26;80.40;;;23.30;;
76729;SDS011;65653;53.106;18.046;2023-11-22T07:14:52;74.20;;;23.50;;
76729;SDS011;65653;53.106;18.046;2023-11-22T07:17:18;68.50;;;20.40;;
76729;SDS011;65653;53.106;18.046;2023-11-22T07:19:44;75.20;;;21.20;;
76729;SDS011;65653;53.106;18.046;2023-11-22T07:22:14;67.40;;;21.50;;
76729;SDS011;65653;53.106;18.046;2023-11-22T07:27:11;73.20;;;19.80;;
76729;SDS011;65653;53.106;18.046;2023-11-22T07:29:41;72.10;;;21.90;;
76729;SDS011;65653;53.106;18.046;2023-11-22T07:32:07;75.10;;;20.50;;
76729;SDS011;65653;53.106;18.046;2023-11-22T07:34:37;82.60;;;23.20;;
76729;SDS011;65653;53.106;18.046;2023-11-22T07:37:06;80.00;;;23.80;;
76729;SDS011;65653;53.106;18.046;2023-11-22T07:39:33;73.20;;;25.00;;
76729;SDS011;65653;53.106;18.046;2023-11-22T07:42:01;74.30;;;26.00;;
76729;SDS011;65653;53.106;18.046;2023-11-22T07:44:33;72.70;;;26.20;;
76729;SDS011;65653;53.106;18.046;2023-11-22T07:47:01;65.40;;;27.00;;
76729;SDS011;65653;53.106;18.046;2023-11-22T07:49:27;63.10;;;25.00;;
76729;SDS011;65653;53.106;18.046;2023-11-22T07:51:54;66.70;;;28.10;;
76729;SDS011;65653;53.106;18.046;2023-11-22T07:54:21;69.70;;;29.50;;
76729;SDS011;65653;53.106;18.046;2023-11-22T07:56:48;87.80;;;36.60;;
76729;SDS011;65653;53.106;18.046;2023-11-22T07:59:14;63.90;;;30.60;;
76729;SDS011;65653;53.106;18.046;2023-11-22T08:01:44;61.00;;;26.90;;
76729;SDS011;65653;53.106;18.046;2023-11-22T08:04:10;68.70;;;31.10;;
76729;SDS011;65653;53.106;18.046;2023-11-22T08:06:36;68.00;;;30.00;;
76729;SDS011;65653;53.106;18.046;2023-11-22T08:09:02;61.40;;;27.70;;
76729;SDS011;65653;53.106;18.046;2023-11-22T08:11:30;53.90;;;25.30;;
76729;SDS011;65653;53.106;18.046;2023-11-22T08:13:57;58.10;;;27.00;;
76729;SDS011;65653;53.106;18.046;2023-11-22T08:16:27;45.10;;;20.50;;
76729;SDS011;65653;53.106;18.046;2023-11-22T08:18:53;58.60;;;27.00;;
76729;SDS011;65653;53.106;18.046;2023-11-22T08:21:19;51.40;;;25.20;;
76729;SDS011;65653;53.106;18.046;2023-11-22T08:23:46;47.00;;;23.60;;
76729;SDS011;65653;53.106;18.046;2023-11-22T08:26:13;39.70;;;20.20;;
76729;SDS011;65653;53.106;18.046;2023-11-22T08:28:40;42.50;;;21.80;;
76729;SDS011;65653;53.106;18.046;2023-11-22T08:31:06;34.50;;;17.80;;
76729;SDS011;65653;53.106;18.046;2023-11-22T08:33:35;37.80;;;19.40;;
76729;SDS011;65653;53.106;18.046;2023-11-22T08:36:02;34.80;;;19.10;;
76729;SDS011;65653;53.106;18.046;2023-11-22T08:38:30;30.90;;;18.20;;
76729;SDS011;65653;53.106;18.046;2023-11-22T08:41:03;25.50;;;15.10;;
76729;SDS011;65653;53.106;18.046;2023-11-22T08:43:33;23.90;;;14.30;;
76729;SDS011;65653;53.106;18.046;2023-11-22T08:46:00;25.20;;;15.30;;
76729;SDS011;65653;53.106;18.046;2023-11-22T08:48:30;30.50;;;16.30;;
76729;SDS011;65653;53.106;18.046;2023-11-22T08:50:56;26.30;;;14.90;;
76729;SDS011;65653;53.106;18.046;2023-11-22T08:53:22;29.00;;;16.80;;
76729;SDS011;65653;53.106;18.046;2023-11-22T08:55:48;24.50;;;14.30;;
76729;SDS011;65653;53.106;18.046;2023-11-22T08:58:14;22.90;;;13.30;;
76729;SDS011;65653;53.106;18.046;2023-11-22T09:00:41;21.60;;;13.80;;
76729;SDS011;65653;53.106;18.046;2023-11-22T09:03:08;19.90;;;12.70;;
76729;SDS011;65653;53.106;18.046;2023-11-22T09:05:41;17.30;;;11.00;;
76729;SDS011;65653;53.106;18.046;2023-11-22T09:08:08;15.90;;;10.00;;
76729;SDS011;65653;53.106;18.046;2023-11-22T09:10:39;22.10;;;12.30;;
76729;SDS011;65653;53.106;18.046;2023-11-22T09:13:07;19.80;;;12.60;;
76729;SDS011;65653;53.106;18.046;2023-11-22T09:15:34;15.50;;;10.00;;
76729;SDS011;65653;53.106;18.046;2023-11-22T09:18:01;20.00;;;12.30;;
76729;SDS011;65653;53.106;18.046;2023-11-22T09:20:27;14.30;;;9.40;;
76729;SDS011;65653;53.106;18.046;2023-11-22T09:22:54;15.10;;;8.70;;
76729;SDS011;65653;53.106;18.046;2023-11-22T09:25:21;14.60;;;8.80;;
76729;SDS011;65653;53.106;18.046;2023-11-22T09:27:49;15.20;;;9.50;;
76729;SDS011;65653;53.106;18.046;2023-11-22T09:30:28;12.20;;;8.60;;
76729;SDS011;65653;53.106;18.046;2023-11-22T09:35:40;12.80;;;8.80;;
76729;SDS011;65653;53.106;18.046;2023-11-22T09:38:07;12.50;;;8.80;;
76729;SDS011;65653;53.106;18.046;2023-11-22T09:40:40;13.60;;;9.60;;
76729;SDS011;65653;53.106;18.046;2023-11-22T09:43:07;9.80;;;7.70;;
76729;SDS011;65653;53.106;18.046;2023-11-22T09:45:33;11.50;;;8.00;;
76729;SDS011;65653;53.106;18.046;2023-11-22T09:48:02;10.30;;;8.20;;
76729;SDS011;65653;53.106;18.046;2023-11-22T09:52:59;10.20;;;7.40;;
76729;SDS011;65653;53.106;18.046;2023-11-22T09:55:28;7.80;;;6.00;;
76729;SDS011;65653;53.106;18.046;2023-11-22T09:57:57;8.30;;;6.90;;
76729;SDS011;65653;53.106;18.046;2023-11-22T10:00:28;10.40;;;7.10;;
76729;SDS011;65653;53.106;18.046;2023-11-22T10:02:56;9.20;;;7.40;;
76729;SDS011;65653;53.106;18.046;2023-11-22T10:05:23;9.10;;;7.40;;
76729;SDS011;65653;53.106;18.046;2023-11-22T10:07:54;9.70;;;7.50;;
76729;SDS011;65653;53.106;18.046;2023-11-22T10:10:21;11.30;;;8.20;;
76729;SDS011;65653;53.106;18.046;2023-11-22T10:12:48;9.90;;;7.30;;
76729;SDS011;65653;53.106;18.046;2023-11-22T10:15:15;11.30;;;8.10;;
76729;SDS011;65653;53.106;18.046;2023-11-22T10:17:47;11.30;;;8.40;;
76729;SDS011;65653;53.106;18.046;2023-11-22T10:20:25;13.30;;;9.70;;
76729;SDS011;65653;53.106;18.046;2023-11-22T10:23:01;11.40;;;8.30;;
76729;SDS011;65653;53.106;18.046;2023-11-22T10:25:28;12.30;;;8.70;;
76729;SDS011;65653;53.106;18.046;2023-11-22T10:27:55;12.70;;;9.30;;
76729;SDS011;65653;53.106;18.046;2023-11-22T10:30:20;14.40;;;10.20;;
76729;SDS011;65653;53.106;18.046;2023-11-22T10:32:46;16.20;;;11.10;;
76729;SDS011;65653;53.106;18.046;2023-11-22T10:35:12;13.20;;;9.20;;
76729;SDS011;65653;53.106;18.046;2023-11-22T10:37:41;15.50;;;10.10;;
76729;SDS011;65653;53.106;18.046;2023-11-22T10:40:12;15.50;;;9.70;;
76729;SDS011;65653;53.106;18.046;2023-11-22T10:42:40;12.80;;;8.90;;
76729;SDS011;65653;53.106;18.046;2023-11-22T10:45:08;14.20;;;9.40;;
76729;SDS011;65653;53.106;18.046;2023-11-22T10:47:38;13.10;;;8.80;;
76729;SDS011;65653;53.106;18.046;2023-11-22T10:52:33;14.00;;;8.50;;
76729;SDS011;65653;53.106;18.046;2023-11-22T10:55:06;12.90;;;8.30;;
76729;SDS011;65653;53.106;18.046;2023-11-22T10:57:35;13.10;;;8.10;;
76729;SDS011;65653;53.106;18.046;2023-11-22T11:00:10;11.90;;;7.80;;
76729;SDS011;65653;53.106;18.046;2023-11-22T11:02:45;11.90;;;7.60;;
76729;SDS011;65653;53.106;18.046;2023-11-22T11:07:45;11.60;;;8.10;;
76729;SDS011;65653;53.106;18.046;2023-11-22T11:10:15;12.90;;;9.10;;
76729;SDS011;65653;53.106;18.046;2023-11-22T11:12:41;10.40;;;7.40;;
76729;SDS011;65653;53.106;18.046;2023-11-22T11:15:09;12.20;;;7.60;;
76729;SDS011;65653;53.106;18.046;2023-11-22T11:17:35;11.40;;;8.10;;
76729;SDS011;65653;53.106;18.046;2023-11-22T11:20:03;10.60;;;7.20;;
76729;SDS011;65653;53.106;18.046;2023-11-22T11:22:34;12.60;;;8.00;;
76729;SDS011;65653;53.106;18.046;2023-11-22T11:25:04;10.10;;;6.70;;
76729;SDS011;65653;53.106;18.046;2023-11-22T11:27:34;10.40;;;8.20;;
76729;SDS011;65653;53.106;18.046;2023-11-22T11:33:09;10.10;;;8.20;;
76729;SDS011;65653;53.106;18.046;2023-11-22T11:35:45;12.00;;;6.70;;
76729;SDS011;65653;53.106;18.046;2023-11-22T11:38:14;8.00;;;6.60;;
76729;SDS011;65653;53.106;18.046;2023-11-22T11:40:41;8.90;;;6.60;;
76729;SDS011;65653;53.106;18.046;2023-11-22T11:43:09;10.90;;;7.50;;
76729;SDS011;65653;53.106;18.046;2023-11-22T11:45:37;8.80;;;6.80;;
76729;SDS011;65653;53.106;18.046;2023-11-22T11:48:06;10.30;;;7.10;;
76729;SDS011;65653;53.106;18.046;2023-11-22T11:50:33;8.60;;;7.00;;
76729;SDS011;65653;53.106;18.046;2023-11-22T11:52:59;8.40;;;6.70;;
76729;SDS011;65653;53.106;18.046;2023-11-22T11:55:28;8.20;;;6.40;;
76729;SDS011;65653;53.106;18.046;2023-11-22T11:57:54;10.60;;;7.00;;
76729;SDS011;65653;53.106;18.046;2023-11-22T12:00:21;10.30;;;6.90;;
76729;SDS011;65653;53.106;18.046;2023-11-22T12:02:50;9.60;;;5.80;;
76729;SDS011;65653;53.106;18.046;2023-11-22T12:05:20;8.10;;;6.00;;
76729;SDS011;65653;53.106;18.046;2023-11-22T12:07:46;8.50;;;5.30;;
76729;SDS011;65653;53.106;18.046;2023-11-22T12:10:13;8.60;;;5.70;;
76729;SDS011;65653;53.106;18.046;2023-11-22T12:12:39;7.60;;;5.60;;
76729;SDS011;65653;53.106;18.046;2023-11-22T12:15:09;8.90;;;5.80;;
76729;SDS011;65653;53.106;18.046;2023-11-22T12:17:36;8.60;;;6.10;;
76729;SDS011;65653;53.106;18.046;2023-11-22T12:20:09;10.70;;;6.40;;
76729;SDS011;65653;53.106;18.046;2023-11-22T12:22:37;10.40;;;5.80;;
76729;SDS011;65653;53.106;18.046;2023-11-22T12:25:07;11.70;;;6.40;;
76729;SDS011;65653;53.106;18.046;2023-11-22T12:27:33;11.20;;;6.50;;
76729;SDS011;65653;53.106;18.046;2023-11-22T12:29:59;12.70;;;5.60;;
76729;SDS011;65653;53.106;18.046;2023-11-22T12:32:25;9.50;;;5.80;;
76729;SDS011;65653;53.106;18.046;2023-11-22T12:34:52;12.40;;;5.80;;
76729;SDS011;65653;53.106;18.046;2023-11-22T12:37:21;8.50;;;5.60;;
76729;SDS011;65653;53.106;18.046;2023-11-22T12:39:50;12.40;;;6.70;;
76729;SDS011;65653;53.106;18.046;2023-11-22T12:42:20;9.60;;;6.00;;
76729;SDS011;65653;53.106;18.046;2023-11-22T12:44:46;13.00;;;6.50;;
76729;SDS011;65653;53.106;18.046;2023-11-22T12:47:14;9.90;;;5.60;;
76729;SDS011;65653;53.106;18.046;2023-11-22T12:49:44;13.30;;;6.70;;
76729;SDS011;65653;53.106;18.046;2023-11-22T12:54:37;14.50;;;7.20;;
76729;SDS011;65653;53.106;18.046;2023-11-22T12:57:09;11.50;;;6.40;;
76729;SDS011;65653;53.106;18.046;2023-11-22T12:59:38;11.00;;;5.90;;
76729;SDS011;65653;53.106;18.046;2023-11-22T13:02:05;13.40;;;6.70;;
76729;SDS011;65653;53.106;18.046;2023-11-22T13:04:32;13.00;;;7.00;;
76729;SDS011;65653;53.106;18.046;2023-11-22T13:06:59;13.20;;;6.70;;
76729;SDS011;65653;53.106;18.046;2023-11-22T13:09:25;12.90;;;6.60;;
76729;SDS011;65653;53.106;18.046;2023-11-22T13:11:52;14.90;;;6.20;;
76729;SDS011;65653;53.106;18.046;2023-11-22T13:14:18;11.80;;;6.10;;
76729;SDS011;65653;53.106;18.046;2023-11-22T13:16:44;13.00;;;6.70;;
76729;SDS011;65653;53.106;18.046;2023-11-22T13:19:10;12.10;;;6.30;;
76729;SDS011;65653;53.106;18.046;2023-11-22T13:21:37;11.90;;;5.80;;
76729;SDS011;65653;53.106;18.046;2023-11-22T13:24:03;12.80;;;6.80;;
76729;SDS011;65653;53.106;18.046;2023-11-22T13:26:32;12.80;;;6.70;;
76729;SDS011;65653;53.106;18.046;2023-11-22T13:28:59;13.30;;;7.20;;
76729;SDS011;65653;53.106;18.046;2023-11-22T13:31:26;12.10;;;6.10;;
76729;SDS011;65653;53.106;18.046;2023-11-22T13:33:52;13.10;;;6.50;;
76729;SDS011;65653;53.106;18.046;2023-11-22T13:36:18;14.20;;;7.20;;
76729;SDS011;65653;53.106;18.046;2023-11-22T13:38:44;13.40;;;6.90;;
76729;SDS011;65653;53.106;18.046;2023-11-22T13:41:09;13.20;;;6.70;;
76729;SDS011;65653;53.106;18.046;2023-11-22T13:43:35;14.20;;;7.20;;
76729;SDS011;65653;53.106;18.046;2023-11-22T13:46:01;17.80;;;8.60;;
76729;SDS011;65653;53.106;18.046;2023-11-22T13:48:27;13.10;;;6.70;;
76729;SDS011;65653;53.106;18.046;2023-11-22T13:50:53;14.70;;;7.60;;
76729;SDS011;65653;53.106;18.046;2023-11-22T13:53:18;14.30;;;7.20;;
76729;SDS011;65653;53.106;18.046;2023-11-22T13:55:48;14.20;;;7.70;;
76729;SDS011;65653;53.106;18.046;2023-11-22T13:58:16;13.80;;;6.70;;
76729;SDS011;65653;53.106;18.046;2023-11-22T14:00:42;10.70;;;5.60;;
76729;SDS011;65653;53.106;18.046;2023-11-22T14:03:08;11.40;;;6.30;;
76729;SDS011;65653;53.106;18.046;2023-11-22T14:05:36;15.20;;;7.40;;
76729;SDS011;65653;53.106;18.046;2023-11-22T14:08:04;13.50;;;6.50;;
76729;SDS011;65653;53.106;18.046;2023-11-22T14:10:31;15.10;;;7.40;;
76729;SDS011;65653;53.106;18.046;2023-11-22T14:12:58;16.10;;;8.00;;
76729;SDS011;65653;53.106;18.046;2023-11-22T14:15:26;15.50;;;7.80;;
76729;SDS011;65653;53.106;18.046;2023-11-22T14:17:56;13.60;;;7.40;;
76729;SDS011;65653;53.106;18.046;2023-11-22T14:20:22;13.90;;;8.10;;
76729;SDS011;65653;53.106;18.046;2023-11-22T14:22:49;14.70;;;7.20;;
76729;SDS011;65653;53.106;18.046;2023-11-22T14:25:15;15.10;;;6.50;;
76729;SDS011;65653;53.106;18.046;2023-11-22T14:27:42;17.20;;;7.40;;
76729;SDS011;65653;53.106;18.046;2023-11-22T14:30:10;17.50;;;7.50;;
76729;SDS011;65653;53.106;18.046;2023-11-22T14:32:40;17.30;;;7.70;;
76729;SDS011;65653;53.106;18.046;2023-11-22T14:35:10;25.00;;;11.40;;